Time;durP1;ratioP1;P1;durP2;ratioP2;P2;SDS_P1;SDS_P2;PMS_P1;PMS_P2;Temp;Humidity;BMP_temperature;BMP_pressure;BME280_temperature;BME280_humidity;BME280_pressure;Samples;Min_cycle;Max_cycle;Signal;HPM_P1;HPM_P2
2023/09/14 00:01:22;;;;;;;;;;;;;;;23.99;43.63;101867.75;5000600;28;19933;-84
2023/09/14 00:03:48;;;;;;;;;;;;;;;23.96;43.57;101870.31;4999235;28;19999;-85
2023/09/14 00:06:13;;;;;;;;;;;;;;;23.95;43.69;101868.69;5001369;28;20349;-84
2023/09/14 00:08:39;;;;;;;;;;;;;;;23.91;43.63;101863.03;5003040;28;20044;-84
2023/09/14 00:11:04;;;;;;;;;;;;;;;23.88;43.63;101862.84;5004148;28;19925;-84
2023/09/14 00:13:30;;;;;;;;;;;;;;;23.86;43.63;101865.06;5001916;28;19917;-84
2023/09/14 00:15:55;;;;;;;;;;;;;;;23.79;43.67;101871.81;5000827;28;20294;-84
2023/09/14 00:18:21;;;;;;;;;;;;;;;23.74;43.62;101871.94;5003846;28;19921;-84
2023/09/14 00:20:48;;;;;;;;;;;;;;;23.66;43.62;101883.59;5004457;28;19924;-84
2023/09/14 00:23:13;;;;;;;;;;;;;;;23.61;43.65;101871.97;5003180;28;19924;-84
2023/09/14 00:25:39;;;;;;;;;;;;;;;23.60;43.59;101886.78;5001264;28;20334;-84
2023/09/14 00:28:04;;;;;;;;;;;;;;;23.58;43.35;101887.06;5002972;28;19925;-85
2023/09/14 00:30:30;;;;;;;;;;;;;;;23.54;43.45;101897.00;5000926;28;19918;-84
2023/09/14 00:32:55;;;;;;;;;;;;;;;23.51;43.42;101898.38;5004390;28;19917;-84
2023/09/14 00:35:20;;;;;;;;;;;;;;;23.49;43.39;101895.16;5004161;28;19925;-84
2023/09/14 00:37:46;;;;;;;;;;;;;;;23.42;43.42;101903.00;5016657;28;20419;-84
2023/09/14 00:40:12;;;;;;;;;;;;;;;23.40;43.36;101904.41;5003955;28;20017;-84
2023/09/14 00:42:38;;;;;;;;;;;;;;;23.40;43.33;101904.41;5002451;28;19922;-86
2023/09/14 00:45:05;;;;;;;;;;;;;;;23.36;43.36;101908.88;5003328;28;19947;-84
2023/09/14 00:47:34;;;;;;;;;;;;;;;23.31;43.39;101904.31;4999010;28;20067;-84
2023/09/14 00:50:00;;;;;;;;;;;;;;;23.26;43.38;101907.16;5001776;28;19947;-84
2023/09/14 00:52:25;;;;;;;;;;;;;;;23.27;43.28;101910.69;5002105;28;19925;-84
2023/09/14 00:54:50;;;;;;;;;;;;;;;23.26;43.25;101915.34;5000813;28;20270;-84
2023/09/14 00:57:17;;;;;;;;;;;;;;;23.24;43.34;101914.06;5003177;28;20015;-84
2023/09/14 00:59:43;;;;;;;;;;;;;;;23.21;43.16;101910.81;4997568;28;19933;-84
2023/09/14 01:02:10;;;;;;;;;;;;;;;23.20;43.10;101914.66;5004220;28;19925;-84
2023/09/14 01:04:35;;;;;;;;;;;;;;;23.18;43.29;101921.56;5003142;28;19952;-85
2023/09/14 01:07:01;;;;;;;;;;;;;;;23.16;43.25;101921.03;5003831;28;20649;-84
2023/09/14 01:09:26;;;;;;;;;;;;;;;23.11;43.31;101916.47;5002466;28;20421;-85
2023/09/14 01:11:51;;;;;;;;;;;;;;;23.08;43.44;101924.47;5002201;28;19921;-84
2023/09/14 01:14:20;;;;;;;;;;;;;;;23.04;43.38;101916.09;5003193;28;19924;-84
2023/09/14 01:17:12;;;;;;;;;;;;;;;23.00;43.33;101917.81;5002326;28;19921;-83
2023/09/14 01:19:50;;;;;;;;;;;;;;;22.95;43.69;101923.34;4997006;28;19921;-84
2023/09/14 01:22:15;;;;;;;;;;;;;;;22.86;43.45;101928.72;5000295;28;20389;-86
2023/09/14 01:24:43;;;;;;;;;;;;;;;22.84;43.72;101930.16;5002377;28;19940;-85
2023/09/14 01:27:09;;;;;;;;;;;;;;;22.81;43.67;101925.25;5001088;28;19925;-84
2023/09/14 01:29:34;;;;;;;;;;;;;;;22.77;43.53;101929.69;4997443;28;19926;-85
2023/09/14 01:31:59;;;;;;;;;;;;;;;22.73;43.64;101923.22;5000069;28;19925;-84
2023/09/14 01:34:24;;;;;;;;;;;;;;;22.68;43.60;101928.78;4999185;28;19933;-84
2023/09/14 01:36:58;;;;;;;;;;;;;;;22.62;43.72;101928.03;5001519;28;20484;-85
2023/09/14 01:39:24;;;;;;;;;;;;;;;22.59;43.86;101932.19;5000153;28;20371;-84
2023/09/14 01:41:54;;;;;;;;;;;;;;;22.56;43.83;101927.31;4999672;28;20297;-84
2023/09/14 01:44:21;;;;;;;;;;;;;;;22.55;43.75;101925.72;5001020;28;19979;-85
2023/09/14 01:46:47;;;;;;;;;;;;;;;22.55;43.67;101930.34;5000189;28;20408;-85
2023/09/14 01:49:13;;;;;;;;;;;;;;;22.52;43.70;101931.78;5002966;28;20020;-84
2023/09/14 01:51:39;;;;;;;;;;;;;;;22.49;43.61;101935.09;5002098;28;20007;-84
2023/09/14 01:54:04;;;;;;;;;;;;;;;22.46;43.52;101929.44;5000852;28;19965;-84
2023/09/14 01:56:29;;;;;;;;;;;;;;;22.41;43.83;101930.31;5001593;28;20008;-85
2023/09/14 01:58:55;;;;;;;;;;;;;;;22.38;43.76;101928.19;5005300;28;19917;-85
2023/09/14 02:01:20;;;;;;;;;;;;;;;22.35;43.93;101926.06;5000213;28;19921;-85
2023/09/14 02:03:45;;;;;;;;;;;;;;;22.33;43.83;101931.00;5003053;28;19925;-84
2023/09/14 02:06:11;;;;;;;;;;;;;;;22.32;44.02;101923.94;4999413;28;20411;-85
2023/09/14 02:08:36;;;;;;;;;;;;;;;22.30;43.81;101923.44;5001874;28;19926;-85
2023/09/14 02:11:01;;;;;;;;;;;;;;;22.29;43.84;101921.81;5001439;28;20401;-84
2023/09/14 02:13:27;;;;;;;;;;;;;;;22.26;43.63;101925.94;4999293;28;19921;-86
2023/09/14 02:15:53;;;;;;;;;;;;;;;22.24;44.00;101925.41;5001900;28;20516;-84
2023/09/14 02:18:18;;;;;;;;;;;;;;;22.20;43.71;101931.78;4999589;28;19951;-84
2023/09/14 02:20:44;;;;;;;;;;;;;;;22.13;43.83;101923.16;5002030;28;20309;-85
2023/09/14 02:23:09;;;;;;;;;;;;;;;22.08;44.09;101924.03;5000743;28;20012;-84
2023/09/14 02:25:34;;;;;;;;;;;;;;;22.05;44.08;101924.63;5001442;28;19925;-85
2023/09/14 02:28:00;;;;;;;;;;;;;;;22.01;44.22;101926.31;5000978;28;20313;-84
2023/09/14 02:30:26;;;;;;;;;;;;;;;21.99;44.17;101934.78;5000377;28;19929;-84
2023/09/14 02:32:51;;;;;;;;;;;;;;;21.97;44.17;101934.28;5000192;28;20075;-84
2023/09/14 02:35:17;;;;;;;;;;;;;;;21.96;44.04;101929.94;4997988;28;20012;-84
2023/09/14 02:37:42;;;;;;;;;;;;;;;21.94;44.13;101939.53;4999817;28;20308;-85
2023/09/14 02:40:07;;;;;;;;;;;;;;;21.91;44.09;101938.19;5001355;28;19932;-85
2023/09/14 02:42:36;;;;;;;;;;;;;;;21.88;44.28;101937.94;5001137;28;20606;-84
2023/09/14 02:45:02;;;;;;;;;;;;;;;21.82;44.24;101947.31;5000491;28;20312;-85
2023/09/14 02:47:28;;;;;;;;;;;;;;;21.77;44.45;101936.50;5001099;28;19940;-83
2023/09/14 02:49:53;;;;;;;;;;;;;;;21.72;44.48;101937.34;4998205;28;19921;-84
2023/09/14 02:52:18;;;;;;;;;;;;;;;21.71;44.32;101938.47;5001129;28;19917;-84
2023/09/14 02:54:44;;;;;;;;;;;;;;;21.69;44.30;101946.94;5001437;28;20420;-84
2023/09/14 02:57:09;;;;;;;;;;;;;;;21.69;44.37;101949.66;5003508;28;19921;-84
2023/09/14 02:59:34;;;;;;;;;;;;;;;21.66;44.30;101949.44;4999837;28;19940;-84
2023/09/14 03:02:00;;;;;;;;;;;;;;;21.65;44.49;101956.00;5001980;28;19917;-85
2023/09/14 03:04:25;;;;;;;;;;;;;;;21.63;44.50;101963.69;5002625;28;19928;-85
2023/09/14 03:06:50;;;;;;;;;;;;;;;21.59;44.36;101959.91;5016968;28;19954;-85
2023/09/14 03:09:15;;;;;;;;;;;;;;;21.57;44.51;101970.31;5005183;28;19922;-85
2023/09/14 03:11:41;;;;;;;;;;;;;;;21.53;44.71;101969.25;5007058;28;19925;-85
2023/09/14 03:14:06;;;;;;;;;;;;;;;21.49;44.69;101974.47;5002298;28;19947;-84
2023/09/14 03:16:31;;;;;;;;;;;;;;;21.46;44.54;101977.00;5003153;28;20382;-85
2023/09/14 03:18:57;;;;;;;;;;;;;;;21.45;44.45;101983.53;5004523;28;19929;-84
2023/09/14 03:21:26;;;;;;;;;;;;;;;21.41;44.61;101973.22;5003830;28;19914;-84
2023/09/14 03:23:51;;;;;;;;;;;;;;;21.40;44.54;101979.78;5001182;28;20012;-85
2023/09/14 03:26:17;;;;;;;;;;;;;;;21.35;44.61;101982.53;5003634;28;20017;-84
2023/09/14 03:28:43;;;;;;;;;;;;;;;21.32;44.58;101985.03;5005431;28;20293;-85
2023/09/14 03:31:09;;;;;;;;;;;;;;;21.28;44.88;101989.47;5001367;28;19917;-84
2023/09/14 03:33:34;;;;;;;;;;;;;;;21.27;44.74;101993.28;5003443;28;19933;-86
2023/09/14 03:36:00;;;;;;;;;;;;;;;21.24;44.86;101999.31;5004406;28;19918;-87
2023/09/14 03:38:25;;;;;;;;;;;;;;;21.21;44.95;101999.88;5003464;28;20998;-84
2023/09/14 03:40:51;;;;;;;;;;;;;;;21.19;44.83;101992.00;5005053;28;20009;-85
2023/09/14 03:43:16;;;;;;;;;;;;;;;21.19;44.99;102002.91;5003387;28;19925;-85
2023/09/14 03:45:41;;;;;;;;;;;;;;;21.21;44.87;102006.16;5002540;28;19909;-84
2023/09/14 03:48:06;;;;;;;;;;;;;;;21.21;44.81;102011.59;5017619;28;20290;-84
2023/09/14 03:50:32;;;;;;;;;;;;;;;21.22;44.67;102012.41;5001626;28;19928;-85
2023/09/14 03:52:57;;;;;;;;;;;;;;;21.22;44.59;102017.84;5005573;28;19924;-85
2023/09/14 03:55:22;;;;;;;;;;;;;;;21.19;44.81;102021.97;5004370;28;20321;-84
2023/09/14 03:57:48;;;;;;;;;;;;;;;21.14;44.82;102016.56;5001074;28;19941;-84
2023/09/14 04:00:17;;;;;;;;;;;;;;;21.08;44.87;102025.91;5001139;28;19918;-85
2023/09/14 04:02:42;;;;;;;;;;;;;;;21.07;45.07;102033.25;5004328;28;20016;-84
2023/09/14 04:05:13;;;;;;;;;;;;;;;21.03;44.97;102036.84;5004136;28;19992;-84
2023/09/14 04:07:39;;;;;;;;;;;;;;;20.99;44.95;102035.78;5001572;28;20008;-84
2023/09/14 04:10:06;;;;;;;;;;;;;;;20.96;45.06;102047.25;5003759;28;21083;-83
2023/09/14 04:12:31;;;;;;;;;;;;;;;20.93;45.08;102040.47;5004582;28;20262;-84
2023/09/14 04:14:57;;;;;;;;;;;;;;;20.92;45.14;102046.22;5002934;28;19948;-84
2023/09/14 04:17:22;;;;;;;;;;;;;;;20.88;45.05;102042.44;4999936;28;19917;-84
2023/09/14 04:19:47;;;;;;;;;;;;;;;20.86;45.22;102039.19;4999235;28;19948;-84
2023/09/14 04:22:12;;;;;;;;;;;;;;;20.86;44.93;102047.34;5004797;28;20000;-85
2023/09/14 04:24:38;;;;;;;;;;;;;;;20.85;44.99;102046.53;5003853;28;20016;-84
2023/09/14 04:27:03;;;;;;;;;;;;;;;20.85;45.11;102053.91;5004262;28;19922;-84
2023/09/14 04:29:30;;;;;;;;;;;;;;;20.84;45.19;102046.84;4999349;28;19977;-85
2023/09/14 04:31:59;;;;;;;;;;;;;;;20.81;44.99;102046.28;4997187;28;20962;-84
2023/09/14 04:34:24;;;;;;;;;;;;;;;20.80;45.03;102039.22;5001826;28;20007;-84
2023/09/14 04:36:49;;;;;;;;;;;;;;;20.79;45.17;102043.03;5001993;28;20020;-84
2023/09/14 04:39:15;;;;;;;;;;;;;;;20.78;45.11;102055.03;5004690;28;19965;-84
2023/09/14 04:41:40;;;;;;;;;;;;;;;20.76;44.90;102059.94;5001598;28;20358;-84
2023/09/14 04:44:05;;;;;;;;;;;;;;;20.73;45.20;102060.53;5002964;28;19917;-85
2023/09/14 04:46:31;;;;;;;;;;;;;;;20.71;45.13;102060.00;4999250;28;19948;-85
2023/09/14 04:48:56;;;;;;;;;;;;;;;20.68;45.08;102062.47;5001248;28;19925;-84
2023/09/14 04:51:23;;;;;;;;;;;;;;;20.65;45.24;102065.78;5002745;28;19928;-84
2023/09/14 04:53:48;;;;;;;;;;;;;;;20.64;45.09;102070.38;5000520;28;19965;-84
2023/09/14 04:56:14;;;;;;;;;;;;;;;20.65;45.01;102068.50;5002634;28;20038;-84
2023/09/14 04:58:39;;;;;;;;;;;;;;;20.64;45.00;102075.00;5001743;28;20570;-84
2023/09/14 05:01:05;;;;;;;;;;;;;;;20.61;45.15;102078.31;5001276;28;19925;-84
2023/09/14 05:03:30;;;;;;;;;;;;;;;20.58;44.92;102079.69;5005393;28;19917;-84
2023/09/14 05:05:56;;;;;;;;;;;;;;;20.57;45.17;102077.25;4998229;28;19940;-84
2023/09/14 05:08:21;;;;;;;;;;;;;;;20.57;45.39;102078.06;4999221;28;19935;-85
2023/09/14 05:10:50;;;;;;;;;;;;;;;20.58;45.12;102089.78;4997444;28;19951;-84
2023/09/14 05:13:18;;;;;;;;;;;;;;;20.59;45.21;102080.50;4998834;28;20071;-84
2023/09/14 05:15:43;;;;;;;;;;;;;;;20.61;45.08;102081.03;4997472;28;19970;-85
2023/09/14 05:18:08;;;;;;;;;;;;;;;20.61;45.04;102083.75;4998244;28;19917;-84
2023/09/14 05:20:34;;;;;;;;;;;;;;;20.63;45.26;102084.28;4999578;28;19956;-85
2023/09/14 05:22:59;;;;;;;;;;;;;;;20.67;45.04;102086.19;4999991;28;20394;-84
2023/09/14 05:25:27;;;;;;;;;;;;;;;20.72;45.23;102085.31;4998112;28;19922;-84
2023/09/14 05:27:53;;;;;;;;;;;;;;;20.75;44.95;102088.28;4998359;28;19967;-84
2023/09/14 05:30:21;;;;;;;;;;;;;;;20.79;45.10;102096.69;4993523;28;20466;-84
2023/09/14 05:32:47;;;;;;;;;;;;;;;20.84;45.04;102093.16;4997584;28;20028;-85
2023/09/14 05:35:12;;;;;;;;;;;;;;;20.89;45.13;102091.19;5000662;28;19918;-84
2023/09/14 05:37:38;;;;;;;;;;;;;;;20.94;44.90;102099.31;5000302;28;19945;-85
2023/09/14 05:40:12;;;;;;;;;;;;;;;20.98;44.87;102100.34;4998640;28;19964;-85
2023/09/14 05:42:38;;;;;;;;;;;;;;;21.01;44.74;102101.72;4999380;28;19922;-84
2023/09/14 05:45:05;;;;;;;;;;;;;;;21.02;44.75;102106.88;4999529;28;19928;-85
2023/09/14 05:47:30;;;;;;;;;;;;;;;21.03;44.80;102104.97;4995644;28;19968;-86
2023/09/14 05:49:56;;;;;;;;;;;;;;;21.07;45.02;102114.19;4997474;28;20063;-84
2023/09/14 05:52:21;;;;;;;;;;;;;;;21.12;44.76;102105.97;4995167;28;20501;-85
2023/09/14 05:54:47;;;;;;;;;;;;;;;21.18;44.65;102112.19;5000142;28;20305;-85
2023/09/14 05:57:14;;;;;;;;;;;;;;;21.22;44.81;102114.06;4998801;28;19929;-84
2023/09/14 05:59:39;;;;;;;;;;;;;;;21.28;44.79;102106.69;4998940;28;19924;-84
2023/09/14 06:02:05;;;;;;;;;;;;;;;21.35;44.46;102113.41;4994549;28;20388;-84
2023/09/14 06:04:30;;;;;;;;;;;;;;;21.45;44.58;102119.88;5000286;28;19947;-84
2023/09/14 06:06:56;;;;;;;;;;;;;;;21.52;44.33;102112.97;5000883;28;19917;-84
2023/09/14 06:09:21;;;;;;;;;;;;;;;21.57;44.43;102117.56;4998971;28;21064;-84
2023/09/14 06:11:47;;;;;;;;;;;;;;;21.61;44.46;102115.88;4999416;28;20008;-84
2023/09/14 06:14:12;;;;;;;;;;;;;;;21.65;44.34;102117.75;4997717;28;19963;-85
2023/09/14 06:16:37;;;;;;;;;;;;;;;21.75;44.30;102116.84;4999027;28;20000;-84
2023/09/14 06:19:03;;;;;;;;;;;;;;;21.83;43.98;102120.81;5000146;28;19989;-84
2023/09/14 06:21:28;;;;;;;;;;;;;;;21.90;43.92;102116.66;5001204;28;19931;-84
2023/09/14 06:23:53;;;;;;;;;;;;;;;21.97;43.98;102127.22;4997605;28;19918;-84
2023/09/14 06:26:19;;;;;;;;;;;;;;;21.99;43.87;102120.34;4998245;28;20024;-84
2023/09/14 06:28:44;;;;;;;;;;;;;;;22.11;43.80;102124.63;5002022;28;20004;-84
2023/09/14 06:31:09;;;;;;;;;;;;;;;22.23;43.76;102114.88;4997653;28;20021;-84
2023/09/14 06:33:35;;;;;;;;;;;;;;;22.32;43.60;102106.88;4996883;28;19921;-84
2023/09/14 06:36:00;;;;;;;;;;;;;;;22.44;43.50;102115.44;4998174;28;20531;-84
2023/09/14 06:38:26;;;;;;;;;;;;;;;22.56;43.35;102121.25;5000810;28;19925;-84
2023/09/14 06:40:51;;;;;;;;;;;;;;;22.67;43.43;102126.56;4999974;28;19922;-84
2023/09/14 06:43:16;;;;;;;;;;;;;;;22.77;43.40;102121.75;4997567;28;20613;-84
2023/09/14 06:45:42;;;;;;;;;;;;;;;22.88;43.10;102119.72;5003309;28;19929;-84
2023/09/14 06:48:08;;;;;;;;;;;;;;;23.01;43.13;102121.69;4999548;28;19930;-85
2023/09/14 06:50:33;;;;;;;;;;;;;;;23.15;42.54;102119.78;5003639;28;19925;-85
2023/09/14 06:52:58;;;;;;;;;;;;;;;23.24;42.68;102116.38;5002830;28;19940;-84
2023/09/14 06:55:24;;;;;;;;;;;;;;;23.35;42.54;102124.13;5001667;28;19925;-85
2023/09/14 06:57:49;;;;;;;;;;;;;;;23.48;42.39;102136.97;4998413;28;19928;-84
2023/09/14 07:00:16;;;;;;;;;;;;;;;23.56;42.32;102135.50;4997477;28;19976;-85
2023/09/14 07:02:45;;;;;;;;;;;;;;;23.60;42.03;102131.06;5001808;28;19928;-85
2023/09/14 07:05:10;;;;;;;;;;;;;;;23.68;42.06;102138.56;5005179;28;19959;-85
2023/09/14 07:07:38;;;;;;;;;;;;;;;23.80;42.20;102140.81;4999635;28;19937;-86
2023/09/14 07:10:04;;;;;;;;;;;;;;;23.91;41.67;102135.94;4997642;28;19926;-86
2023/09/14 07:12:29;;;;;;;;;;;;;;;23.99;41.69;102143.44;5003001;28;19918;-85
2023/09/14 07:14:55;;;;;;;;;;;;;;;24.09;41.78;102145.97;5001957;28;19918;-86
2023/09/14 07:17:20;;;;;;;;;;;;;;;24.21;41.68;102149.00;5002868;28;19918;-87
2023/09/14 07:19:45;;;;;;;;;;;;;;;24.38;41.44;102145.66;5003108;28;19928;-85
2023/09/14 07:22:11;;;;;;;;;;;;;;;24.50;41.07;102153.34;5004254;28;19917;-86
2023/09/14 07:24:36;;;;;;;;;;;;;;;24.58;40.78;102150.66;5002716;28;20333;-86
2023/09/14 07:27:01;;;;;;;;;;;;;;;24.63;40.97;102152.50;5001382;28;19921;-86
2023/09/14 07:29:28;;;;;;;;;;;;;;;24.73;40.93;102159.66;4998549;28;19926;-86
2023/09/14 07:31:54;;;;;;;;;;;;;;;24.82;41.03;102166.03;4995677;28;19925;-86
2023/09/14 07:34:19;;;;;;;;;;;;;;;24.95;40.91;102165.97;5002286;28;19932;-86
2023/09/14 07:36:45;;;;;;;;;;;;;;;25.11;40.52;102168.38;5001757;28;20373;-86
2023/09/14 07:39:10;;;;;;;;;;;;;;;25.21;40.48;102166.19;5002404;28;20855;-86
2023/09/14 07:41:36;;;;;;;;;;;;;;;25.32;40.60;102183.22;5000089;28;20534;-86
2023/09/14 07:44:01;;;;;;;;;;;;;;;25.44;40.34;102177.94;5001249;28;19928;-86
2023/09/14 07:46:26;;;;;;;;;;;;;;;25.57;40.15;102182.56;5001781;28;19926;-87
2023/09/14 07:48:52;;;;;;;;;;;;;;;25.68;39.30;102193.31;5005001;28;19945;-87
2023/09/14 07:51:17;;;;;;;;;;;;;;;25.73;39.80;102190.41;5015439;28;19917;-86
2023/09/14 07:53:42;;;;;;;;;;;;;;;25.76;39.70;102200.75;5003967;28;19917;-86
2023/09/14 07:56:08;;;;;;;;;;;;;;;25.75;39.54;102204.63;5017543;28;19940;-86
2023/09/14 07:58:33;;;;;;;;;;;;;;;25.74;39.75;102206.56;5002445;28;20298;-85
2023/09/14 08:00:58;;;;;;;;;;;;;;;25.84;39.62;102205.47;5001303;28;19972;-86
2023/09/14 08:03:25;;;;;;;;;;;;;;;25.94;39.55;102205.19;4999661;28;19918;-85
2023/09/14 08:05:51;;;;;;;;;;;;;;;26.08;39.29;102205.91;5001943;28;19944;-86
2023/09/14 08:08:17;;;;;;;;;;;;;;;26.17;38.94;102209.47;5005621;28;20007;-86
2023/09/14 08:10:47;;;;;;;;;;;;;;;26.23;39.16;102206.59;5003306;28;19961;-86
2023/09/14 08:13:13;;;;;;;;;;;;;;;26.28;39.21;102212.75;5002281;28;20024;-86
2023/09/14 08:15:39;;;;;;;;;;;;;;;26.39;39.14;102213.28;5000226;28;20371;-86
2023/09/14 08:18:05;;;;;;;;;;;;;;;26.52;38.88;102217.84;5001040;28;19917;-86
2023/09/14 08:20:30;;;;;;;;;;;;;;;26.65;38.89;102225.13;5001099;28;19925;-85
2023/09/14 08:22:55;;;;;;;;;;;;;;;26.70;38.61;102224.16;5002663;28;20401;-86
2023/09/14 08:25:20;;;;;;;;;;;;;;;26.62;38.30;102228.53;4999732;28;19925;-86
2023/09/14 08:27:46;;;;;;;;;;;;;;;26.51;38.38;102238.22;4995292;28;20055;-86
2023/09/14 08:30:11;;;;;;;;;;;;;;;26.50;38.75;102231.91;5001465;28;19918;-87
2023/09/14 08:32:37;;;;;;;;;;;;;;;26.56;38.55;102235.28;5000294;28;19968;-87
2023/09/14 08:35:19;;;;;;;;;;;;;;;26.54;38.73;102240.31;5001928;28;20642;-85
2023/09/14 08:37:45;;;;;;;;;;;;;;;26.57;38.78;102238.84;5001029;28;19918;-86
2023/09/14 08:40:12;;;;;;;;;;;;;;;26.62;38.71;102241.47;5002882;28;19925;-86
2023/09/14 08:42:38;;;;;;;;;;;;;;;26.60;38.69;102241.78;5000657;28;19971;-85
2023/09/14 08:45:10;;;;;;;;;;;;;;;26.59;38.65;102248.44;4999573;28;19922;-85
2023/09/14 08:47:35;;;;;;;;;;;;;;;26.56;38.77;102250.97;5001275;28;19929;-86
2023/09/14 08:50:01;;;;;;;;;;;;;;;26.60;38.42;102243.75;5002264;28;20016;-86
2023/09/14 08:52:27;;;;;;;;;;;;;;;26.61;38.63;102246.16;5003871;28;20366;-85
2023/09/14 08:54:53;;;;;;;;;;;;;;;26.64;38.37;102242.75;5001585;28;19918;-86
2023/09/14 08:57:19;;;;;;;;;;;;;;;26.69;38.47;102242.59;5004453;28;20017;-86
2023/09/14 08:59:44;;;;;;;;;;;;;;;26.76;38.17;102240.19;5000740;28;20013;-86
2023/09/14 09:02:12;;;;;;;;;;;;;;;26.80;38.14;102243.13;4993373;28;19926;-86
2023/09/14 09:04:38;;;;;;;;;;;;;;;26.88;38.25;102247.00;4996188;28;19922;-87
2023/09/14 09:07:04;;;;;;;;;;;;;;;27.01;38.11;102246.88;4997023;28;20015;-87
2023/09/14 09:09:29;;;;;;;;;;;;;;;27.15;38.01;102246.72;4997018;28;20475;-86
2023/09/14 09:11:55;;;;;;;;;;;;;;;27.27;37.44;102249.59;4996384;28;19918;-86
2023/09/14 09:14:20;;;;;;;;;;;;;;;27.32;37.96;102237.63;5002525;28;19924;-85
2023/09/14 09:16:45;;;;;;;;;;;;;;;27.33;37.64;102234.56;5003804;28;20396;-86
2023/09/14 09:19:10;;;;;;;;;;;;;;;27.27;37.57;102244.09;5003174;28;20385;-86
2023/09/14 09:21:36;;;;;;;;;;;;;;;27.26;37.77;102242.47;4999787;28;19917;-86
2023/09/14 09:24:06;;;;;;;;;;;;;;;27.26;37.77;102242.47;5012041;28;19917;-86
2023/09/14 09:26:38;;;;;;;;;;;;;;;27.25;37.38;102231.81;5002032;28;20274;-86
2023/09/14 09:29:12;;;;;;;;;;;;;;;27.21;37.54;102233.59;4996431;28;19932;-86
2023/09/14 09:31:41;;;;;;;;;;;;;;;27.23;37.70;102236.81;5001875;28;19921;-86
2023/09/14 09:34:08;;;;;;;;;;;;;;;27.30;37.76;102232.47;5000137;28;19926;-86
2023/09/14 09:36:34;;;;;;;;;;;;;;;27.41;37.90;102227.41;5002683;28;20378;-85
2023/09/14 09:39:03;;;;;;;;;;;;;;;27.52;37.53;102227.88;5002149;28;19925;-86
2023/09/14 09:41:31;;;;;;;;;;;;;;;27.60;37.37;102235.31;5001295;28;20004;-85
2023/09/14 09:43:57;;;;;;;;;;;;;;;27.82;37.46;102237.84;5002095;28;20008;-86
2023/09/14 09:46:23;;;;;;;;;;;;;;;28.08;36.83;102235.00;5003206;28;20024;-86
2023/09/14 09:48:49;;;;;;;;;;;;;;;28.25;36.51;102236.88;5001768;28;19929;-85
2023/09/14 09:51:14;;;;;;;;;;;;;;;28.35;36.21;102241.22;4997678;28;20444;-85
2023/09/14 09:53:59;;;;;;;;;;;;;;;28.41;36.21;102240.72;5000912;28;19917;-85
2023/09/14 09:56:26;;;;;;;;;;;;;;;28.51;36.05;102237.53;5006516;28;19917;-86
2023/09/14 09:58:51;;;;;;;;;;;;;;;28.68;35.91;102239.38;5001823;28;21287;-85
2023/09/14 10:01:20;;;;;;;;;;;;;;;28.81;35.66;102243.84;5003364;28;20409;-86
2023/09/14 10:03:46;;;;;;;;;;;;;;;29.03;35.84;102248.22;5000094;28;19957;-86
2023/09/14 10:06:12;;;;;;;;;;;;;;;29.32;35.82;102244.56;5004467;28;20012;-86
2023/09/14 10:08:37;;;;;;;;;;;;;;;29.45;35.19;102243.50;5001993;28;20367;-85
2023/09/14 10:11:04;;;;;;;;;;;;;;;29.43;34.84;102244.94;5001189;28;20393;-85
2023/09/14 10:13:30;;;;;;;;;;;;;;;29.29;34.65;102247.22;5002410;28;19924;-85
2023/09/14 10:15:56;;;;;;;;;;;;;;;29.08;34.86;102239.75;5003291;28;20286;-85
2023/09/14 10:18:22;;;;;;;;;;;;;;;29.06;35.31;102242.03;4997659;28;19951;-85
2023/09/14 10:20:50;;;;;;;;;;;;;;;29.21;35.13;102235.09;4999477;28;19987;-86
2023/09/14 10:23:16;;;;;;;;;;;;;;;29.39;35.13;102239.28;5001058;28;19917;-85
2023/09/14 10:25:45;;;;;;;;;;;;;;;29.56;34.54;102232.00;4995489;28;19918;-86
2023/09/14 10:28:11;;;;;;;;;;;;;;;29.76;34.60;102229.16;5001490;28;20020;-85
2023/09/14 10:30:38;;;;;;;;;;;;;;;29.98;34.05;102235.41;5003192;28;20473;-86
2023/09/14 10:33:04;;;;;;;;;;;;;;;30.19;34.02;102227.84;4994534;28;19922;-85
2023/09/14 10:35:30;;;;;;;;;;;;;;;30.38;33.74;102236.38;5002846;28;20023;-85
2023/09/14 10:37:57;;;;;;;;;;;;;;;30.59;33.73;102238.97;4996400;28;21534;-84
2023/09/14 10:40:23;;;;;;;;;;;;;;;30.76;33.47;102240.69;4995610;28;19921;-85
2023/09/14 10:42:49;;;;;;;;;;;;;;;30.86;33.45;102245.72;5001123;28;19924;-85
2023/09/14 10:45:14;;;;;;;;;;;;;;;30.76;32.48;102240.69;5000221;28;20012;-84
2023/09/14 10:47:41;;;;;;;;;;;;;;;30.60;33.24;102246.13;5001506;28;20340;-84
2023/09/14 10:50:08;;;;;;;;;;;;;;;30.36;33.24;102241.44;5000946;28;19947;-84
2023/09/14 10:52:34;;;;;;;;;;;;;;;30.16;33.50;102245.09;5003294;28;19928;-84
2023/09/14 10:54:59;;;;;;;;;;;;;;;30.01;33.35;102245.78;5001492;28;19917;-85
2023/09/14 10:57:27;;;;;;;;;;;;;;;30.05;33.56;102241.22;4999385;28;19926;-84
2023/09/14 10:59:54;;;;;;;;;;;;;;;30.28;33.84;102242.34;5003713;28;19921;-85
2023/09/14 11:02:39;;;;;;;;;;;;;;;30.57;32.89;102243.25;5001646;28;20301;-84
2023/09/14 11:05:14;;;;;;;;;;;;;;;30.89;32.87;102242.28;4999529;28;20376;-85
2023/09/14 11:07:40;;;;;;;;;;;;;;;30.97;32.34;102241.31;4995693;28;19930;-85
2023/09/14 11:10:06;;;;;;;;;;;;;;;30.93;32.34;102245.97;4999129;28;20321;-85
2023/09/14 11:12:32;;;;;;;;;;;;;;;30.77;32.13;102242.31;5003014;28;19953;-85
2023/09/14 11:15:16;;;;;;;;;;;;;;;30.59;32.66;102238.16;4998699;28;20531;-85
2023/09/14 11:17:43;;;;;;;;;;;;;;;30.40;32.63;102235.22;5001578;28;19941;-85
2023/09/14 11:20:20;;;;;;;;;;;;;;;30.29;33.14;102224.59;5000942;28;19996;-85
2023/09/14 11:22:46;;;;;;;;;;;;;;;30.44;32.83;102225.06;4998848;28;20282;-86
2023/09/14 11:25:24;;;;;;;;;;;;;;;30.70;32.65;102231.00;5015839;28;19928;-85
2023/09/14 11:27:50;;;;;;;;;;;;;;;31.00;32.14;102228.75;5002403;28;19929;-85
2023/09/14 11:30:15;;;;;;;;;;;;;;;31.20;31.74;102215.88;5009547;28;19918;-84
2023/09/14 11:32:42;;;;;;;;;;;;;;;31.21;32.08;102223.03;5001828;28;19975;-86
2023/09/14 11:35:07;;;;;;;;;;;;;;;31.08;31.93;102227.00;5013604;28;19925;-86
2023/09/14 11:37:32;;;;;;;;;;;;;;;30.92;31.63;102232.47;5003871;28;20939;-85
2023/09/14 11:39:58;;;;;;;;;;;;;;;30.85;31.77;102224.75;5000256;28;19925;-88
2023/09/14 11:42:24;;;;;;;;;;;;;;;30.94;31.42;102225.44;5005158;28;19918;-85
2023/09/14 11:44:53;;;;;;;;;;;;;;;31.07;30.91;102225.38;5003768;28;19929;-86
2023/09/14 11:47:18;;;;;;;;;;;;;;;31.14;31.42;102220.84;5002564;28;20015;-87
2023/09/14 11:49:47;;;;;;;;;;;;;;;31.31;31.21;102219.75;5000360;28;20393;-86
2023/09/14 11:52:15;;;;;;;;;;;;;;;31.52;30.70;102214.78;5001696;28;20005;-86
2023/09/14 11:54:44;;;;;;;;;;;;;;;31.74;30.34;102207.03;4999961;28;20437;-87
2023/09/14 11:57:12;;;;;;;;;;;;;;;31.92;30.86;102210.25;5000764;28;19957;-86
2023/09/14 11:59:37;;;;;;;;;;;;;;;32.15;30.69;102211.22;4999363;28;19925;-86
2023/09/14 12:02:03;;;;;;;;;;;;;;;32.27;30.08;102210.31;4995274;28;20012;-86
2023/09/14 12:04:29;;;;;;;;;;;;;;;32.05;29.61;102218.13;4996403;28;19926;-86
2023/09/14 12:06:55;;;;;;;;;;;;;;;31.69;30.24;102221.13;4994495;28;19925;-86
2023/09/14 12:09:41;;;;;;;;;;;;;;;31.39;30.27;102224.31;4998968;28;20012;-86
2023/09/14 12:12:09;;;;;;;;;;;;;;;31.29;30.09;102219.31;4997300;28;19975;-86
2023/09/14 12:14:38;;;;;;;;;;;;;;;31.10;30.18;102228.25;4998418;28;19922;-86
2023/09/14 12:17:17;;;;;;;;;;;;;;;31.00;31.02;102228.75;5001159;28;19928;-86
2023/09/14 12:19:46;;;;;;;;;;;;;;;31.00;31.06;102223.19;4997193;28;19933;-86
2023/09/14 12:22:11;;;;;;;;;;;;;;;30.98;30.77;102226.31;4999796;28;19928;-86
2023/09/14 12:24:36;;;;;;;;;;;;;;;30.83;30.63;102229.84;5000519;28;19921;-86
2023/09/14 12:27:02;;;;;;;;;;;;;;;30.75;30.80;102233.56;4999650;28;19926;-85
2023/09/14 12:29:27;;;;;;;;;;;;;;;30.93;30.84;102239.63;4999520;28;19926;-85
2023/09/14 12:31:53;;;;;;;;;;;;;;;31.05;30.26;102235.97;4999116;28;19918;-86